Map

Track Data

SID SEASON NUMBER BASIN SUBBASIN NAME ISO_TIME NATURE LAT LON WMO_WIND WMO_PRES WMO_AGENCY TRACK_TYPE DIST2LAND LANDFALL IFLAG USA_AGENCY USA_ATCF_ID USA_LAT USA_LON USA_RECORD USA_STATUS USA_WIND USA_PRES USA_SSHS USA_R34_NE USA_R34_SE USA_R34_SW USA_R34_NW USA_R50_NE USA_R50_SE USA_R50_SW USA_R50_NW USA_R64_NE USA_R64_SE USA_R64_SW USA_R64_NW USA_POCI USA_ROCI USA_RMW USA_EYE TOKYO_LAT TOKYO_LON TOKYO_GRADE TOKYO_WIND TOKYO_PRES TOKYO_R50_DIR TOKYO_R50_LONG TOKYO_R50_SHORT TOKYO_R30_DIR TOKYO_R30_LONG TOKYO_R30_SHORT TOKYO_LAND CMA_LAT CMA_LON CMA_CAT CMA_WIND CMA_PRES HKO_LAT HKO_LON HKO_CAT HKO_WIND HKO_PRES NEWDELHI_LAT NEWDELHI_LON NEWDELHI_GRADE NEWDELHI_WIND NEWDELHI_PRES NEWDELHI_CI NEWDELHI_DP NEWDELHI_POCI REUNION_LAT REUNION_LON REUNION_TYPE REUNION_WIND REUNION_PRES REUNION_TNUM REUNION_CI REUNION_RMW REUNION_R34_NE REUNION_R34_SE REUNION_R34_SW REUNION_R34_NW REUNION_R50_NE REUNION_R50_SE REUNION_R50_SW REUNION_R50_NW REUNION_R64_NE REUNION_R64_SE REUNION_R64_SW REUNION_R64_NW BOM_LAT BOM_LON BOM_TYPE BOM_WIND BOM_PRES BOM_TNUM BOM_CI BOM_RMW BOM_R34_NE BOM_R34_SE BOM_R34_SW BOM_R34_NW BOM_R50_NE BOM_R50_SE BOM_R50_SW BOM_R50_NW BOM_R64_NE BOM_R64_SE BOM_R64_SW BOM_R64_NW BOM_ROCI BOM_POCI BOM_EYE BOM_POS_METHOD BOM_PRES_METHOD NADI_LAT NADI_LON NADI_CAT NADI_WIND NADI_PRES WELLINGTON_LAT WELLINGTON_LON WELLINGTON_WIND WELLINGTON_PRES DS824_LAT DS824_LON DS824_STAGE DS824_WIND DS824_PRES TD9636_LAT TD9636_LON TD9636_STAGE TD9636_WIND TD9636_PRES TD9635_LAT TD9635_LON TD9635_WIND TD9635_PRES TD9635_ROCI NEUMANN_LAT NEUMANN_LON NEUMANN_CLASS NEUMANN_WIND NEUMANN_PRES MLC_LAT MLC_LON MLC_CLASS MLC_WIND MLC_PRES USA_GUST BOM_GUST BOM_GUST_PER REUNION_GUST REUNION_GUST_PER USA_SEAHGT USA_SEARAD_NE USA_SEARAD_SE USA_SEARAD_SW USA_SEARAD_NW STORM_SPEED STORM_DIR
1976258N28279 1976 113 NA NA NOT_NAMED 1976-09-13 12:00:00 SS 28.0000 -81.5000 15 1017 hurdat_atl main 0 0 O_____________ hurdat_atl AL141976 28.0000 -81.5000 SD 15 1017 -2 7 3
1976258N28279 1976 113 NA NA NOT_NAMED 1976-09-13 15:00:00 SS 28.3375 -81.5000 main 0 0 P_____________ AL141976 28.3375 -81.5000 SD 15 1016 -2 7 0
1976258N28279 1976 113 NA NA NOT_NAMED 1976-09-13 18:00:00 SS 28.7000 -81.5000 15 1016 hurdat_atl main 0 0 O_____________ hurdat_atl AL141976 28.7000 -81.5000 SD 15 1016 -2 8 0
1976258N28279 1976 113 NA NA NOT_NAMED 1976-09-13 21:00:00 SS 29.1000 -81.5000 main 0 0 P_____________ AL141976 29.1000 -81.5000 SD 17 1015 -2 8 1
1976258N28279 1976 113 NA NA NOT_NAMED 1976-09-14 00:00:00 SS 29.5000 -81.5000 20 1015 hurdat_atl main 0 0 O_____________ hurdat_atl AL141976 29.5000 -81.5000 SD 20 1015 -2 8 0
1976258N28279 1976 113 NA NA NOT_NAMED 1976-09-14 03:00:00 SS 29.8500 -81.5222 main 0 0 P_____________ AL141976 29.8500 -81.5222 SD 22 1014 -2 7 0
1976258N28279 1976 113 NA NA NOT_NAMED 1976-09-14 06:00:00 SS 30.2000 -81.5000 25 1014 hurdat_atl main 0 0 O_____________ hurdat_atl AL141976 30.2000 -81.5000 SD 25 1014 -2 8 10
1976258N28279 1976 113 NA NA NOT_NAMED 1976-09-14 09:00:00 SS 30.6076 -81.3653 main 9 9 P_____________ AL141976 30.6076 -81.3653 SD 30 1013 -2 8 18
1976258N28279 1976 113 NA NA NOT_NAMED 1976-09-14 12:00:00 SS 31.0000 -81.2000 35 1013 hurdat_atl main 19 18 O_____________ hurdat_atl AL141976 31.0000 -81.2000 SS 35 1013 -2 7 18
1976258N28279 1976 113 NA NA NOT_NAMED 1976-09-14 15:00:00 SS 31.3150 -81.0923 main 18 18 P_____________ AL141976 31.3150 -81.0923 SS 35 1012 -2 6 16
1976258N28279 1976 113 NA NA NOT_NAMED 1976-09-14 18:00:00 SS 31.6000 -81.0000 35 1012 hurdat_atl main 18 0 O_____________ hurdat_atl AL141976 31.6000 -81.0000 SS 35 1012 -2 6 15
1976258N28279 1976 113 NA NA NOT_NAMED 1976-09-14 21:00:00 SS 31.8849 -80.9147 main 0 0 P_____________ AL141976 31.8849 -80.9147 SS 37 1011 -2 6 16
1976258N28279 1976 113 NA NA NOT_NAMED 1976-09-15 00:00:00 SS 32.2000 -80.8000 40 1011 hurdat_atl main 0 0 O_____________ hurdat_atl AL141976 32.2000 -80.8000 SS 40 1011 -2 7 20
1976258N28279 1976 113 NA NA NOT_NAMED 1976-09-15 03:00:00 SS 32.5850 -80.6151 main 0 0 P_____________ AL141976 32.5850 -80.6151 SS 37 1011 -2 9 23
1976258N28279 1976 113 NA NA NOT_NAMED 1976-09-15 06:00:00 SS 33.0000 -80.4000 35 1011 hurdat_atl main 0 0 O_____________ hurdat_atl AL141976 33.0000 -80.4000 SS 35 1011 -2 9 23
1976258N28279 1976 113 NA NA NOT_NAMED 1976-09-15 09:00:00 SS 33.3999 -80.2072 main 0 0 P_____________ AL141976 33.3999 -80.2072 SS 35 1011 -2 9 23
1976258N28279 1976 113 NA NA NOT_NAMED 1976-09-15 12:00:00 SS 33.8000 -80.0000 35 1011 hurdat_atl main 0 0 O_____________ hurdat_atl AL141976 33.8000 -80.0000 SS 35 1011 -2 9 24
1976258N28279 1976 113 NA NA NOT_NAMED 1976-09-15 15:00:00 SS 34.2300 -79.7576 main 0 0 P_____________ AL141976 34.2300 -79.7576 SS 32 1011 -2 9 27
1976258N28279 1976 113 NA NA NOT_NAMED 1976-09-15 18:00:00 SS 34.6000 -79.5000 30 1012 hurdat_atl main 0 0 O_____________ hurdat_atl AL141976 34.6000 -79.5000 SD 30 1012 -2 7 37
1976258N28279 1976 113 NA NA NOT_NAMED 1976-09-15 21:00:00 SS 34.8226 -79.2198 main 0 0 P_____________ AL141976 34.8226 -79.2198 SD 30 1012 -2 6 46
1976258N28279 1976 113 NA NA NOT_NAMED 1976-09-16 00:00:00 SS 35.0000 -79.0000 30 1012 hurdat_atl main 0 0 O_____________ hurdat_atl AL141976 35.0000 -79.0000 SD 30 1012 -2 5 31
1976258N28279 1976 113 NA NA NOT_NAMED 1976-09-16 03:00:00 SS 35.2424 -78.9197 main 0 0 P_____________ AL141976 35.2424 -78.9197 SD 27 1012 -2 5 9
1976258N28279 1976 113 NA NA NOT_NAMED 1976-09-16 06:00:00 SS 35.5000 -78.9000 25 1012 hurdat_atl main 0 0 O_____________ hurdat_atl AL141976 35.5000 -78.9000 SD 25 1012 -2 5 5
1976258N28279 1976 113 NA NA NOT_NAMED 1976-09-16 09:00:00 SS 35.7499 -78.8723 main 0 0 P_____________ AL141976 35.7499 -78.8723 SD 22 1012 -2 5 9
1976258N28279 1976 113 NA NA NOT_NAMED 1976-09-16 12:00:00 SS 36.0000 -78.8000 20 1013 hurdat_atl main 0 0 O_____________ hurdat_atl AL141976 36.0000 -78.8000 SD 20 1013 -2 5 22
1976258N28279 1976 113 NA NA NOT_NAMED 1976-09-16 15:00:00 SS 36.2500 -78.6226 main 0 0 P_____________ AL141976 36.2500 -78.6226 SD 17 1013 -2 6 33
1976258N28279 1976 113 NA NA NOT_NAMED 1976-09-16 18:00:00 SS 36.5000 -78.4000 15 1013 hurdat_atl main 0 0 O_____________ hurdat_atl AL141976 36.5000 -78.4000 SD 15 1013 -2 6 35
1976258N28279 1976 113 NA NA NOT_NAMED 1976-09-16 21:00:00 SS 36.7500 -78.1926 main 0 0 P_____________ AL141976 36.7500 -78.1926 SD 15 1013 -2 6 33
1976258N28279 1976 113 NA NA NOT_NAMED 1976-09-17 00:00:00 SS 37.0000 -78.0000 15 1014 hurdat_atl main 0 O_____________ hurdat_atl AL141976 37.0000 -78.0000 SD 15 1014 -2 6 32

About IBTrACS Database

This database is a web-friendly format of International Best Track Archive for Climate Stewardship (IBTrACS), a global best track data archive curated by NOAA dating back to 1842.

Updated: 2021-12-03